Aérodrome :







RETROUVEZ-NOUS SUR...

 
LOGIN :

S'inscrire | Disclaimer

   EN    FR    IT 

 









Légende :    VFR   VFR Marginal   IFR   IFR Intensif   IFR Très Intensif
Visi : 
Plafond : 
>= 8 km
>= 3000ft
5 à 8 km
1000 à 3000 ft
1500m à 5 km
500 à 1000 ft
800 à 1500m
200 à 500 ft
< 800m
< 200 ft
Symboles :   Orages  Brouillard  Fortes neiges  Fortes précipitations  Vent > 20 kt






- Altitude de l'aérodrome : 107 ft


KBVY - Beverly Municipal

DERNIER METAR :
  • 230053Z 27013G22KT 10SM OVC050 06/M03 A2965 RMK AO2 SLP037 T00611028

METARs EXPIRÉS :
  • 222353Z 27011G20KT 10SM BKN055 06/M02 A2962 RMK AO2 SLP025 60004 T00561017 10122 20056 53024
  • 222253Z 27012G21KT 10SM SCT055 06/M01 A2959 RMK AO2 SLP017 T00561006

TAF N/A



MET'MAP, la Météo Aéronautique d'un coup d'oeil ! - Copyright ORBIFLY Décembre 2007 - Disclaimer

ORBIFLY MET'MAP TEAM :

Programmation & Développement : Alexandra Zaïnal
Conception & Développement : Baudouin d'Aumeries
Co-Programmation & Développement : Marc-Olivier Méhu
Soutien technique & logistique : Manuel Goepfert

Contact : metmap@orbifly.com




SOURCES & CREDITS :

   NOAA